Terminal Aerodrome Forecast
Issued by NWS

Home | Current Version | Previous Version | Text Only | Print | Product List | Glossary On
Versions: 1 2 3 4 5 6 7 8 9 10 11 12 13 14 15 16 17 18 19 20
000
FTUS43 KGRR 230230 AAA
TAFBTL
TAF AMD
KBTL 230230Z 2303/2324 04006KT 1SM BR OVC002
     FM230500 01005KT 1/4SM FG OVC002
     FM231600 01006KT 1/2SM FG OVC004
     FM231800 34008KT 3SM -RA BR OVC015=

USA.gov is the U.S. government's official web portal to all federal, state and local government web resources and services.